sensor_id;sensor_type;location;lat;lon;timestamp;P1;durP1;ratioP1;P2;durP2;ratioP2
10351;SDS011;5222;49.324;8.420;2022-09-09T00:00:15;1081.60;;;999.90;;
10351;SDS011;5222;49.324;8.420;2022-09-09T00:02:44;1077.82;;;999.90;;
10351;SDS011;5222;49.324;8.420;2022-09-09T00:05:22;1077.38;;;999.90;;
10351;SDS011;5222;49.324;8.420;2022-09-09T00:07:55;1079.60;;;999.90;;
10351;SDS011;5222;49.324;8.420;2022-09-09T00:10:28;1079.68;;;999.90;;
10351;SDS011;5222;49.324;8.420;2022-09-09T00:12:57;1085.30;;;999.90;;
10351;SDS011;5222;49.324;8.420;2022-09-09T00:15:33;1080.40;;;999.90;;
10351;SDS011;5222;49.324;8.420;2022-09-09T00:18:07;1078.95;;;999.90;;
10351;SDS011;5222;49.324;8.420;2022-09-09T00:20:41;1082.00;;;999.90;;
10351;SDS011;5222;49.324;8.420;2022-09-09T00:23:14;1088.77;;;999.90;;
10351;SDS011;5222;49.324;8.420;2022-09-09T00:25:49;1083.82;;;999.90;;
10351;SDS011;5222;49.324;8.420;2022-09-09T00:28:25;1082.80;;;999.90;;
10351;SDS011;5222;49.324;8.420;2022-09-09T00:30:55;1081.47;;;999.90;;
10351;SDS011;5222;49.324;8.420;2022-09-09T00:33:22;1079.82;;;999.90;;
10351;SDS011;5222;49.324;8.420;2022-09-09T00:35:50;1082.57;;;999.90;;
10351;SDS011;5222;49.324;8.420;2022-09-09T00:38:22;1080.57;;;999.90;;
10351;SDS011;5222;49.324;8.420;2022-09-09T00:40:53;1080.90;;;999.90;;
10351;SDS011;5222;49.324;8.420;2022-09-09T00:43:28;1081.18;;;999.90;;
10351;SDS011;5222;49.324;8.420;2022-09-09T00:46:10;1082.82;;;999.90;;
10351;SDS011;5222;49.324;8.420;2022-09-09T00:48:51;1079.18;;;999.90;;
10351;SDS011;5222;49.324;8.420;2022-09-09T00:51:25;1075.65;;;999.90;;
10351;SDS011;5222;49.324;8.420;2022-09-09T00:54:06;1080.13;;;999.90;;
10351;SDS011;5222;49.324;8.420;2022-09-09T00:56:53;1072.60;;;999.90;;
10351;SDS011;5222;49.324;8.420;2022-09-09T00:59:34;1066.35;;;998.25;;
10351;SDS011;5222;49.324;8.420;2022-09-09T01:02:13;1077.97;;;999.90;;
10351;SDS011;5222;49.324;8.420;2022-09-09T01:04:48;1072.15;;;999.90;;
10351;SDS011;5222;49.324;8.420;2022-09-09T01:07:16;1072.63;;;999.90;;
10351;SDS011;5222;49.324;8.420;2022-09-09T01:09:51;1076.72;;;999.90;;
10351;SDS011;5222;49.324;8.420;2022-09-09T01:12:27;1077.73;;;999.90;;
10351;SDS011;5222;49.324;8.420;2022-09-09T01:15:03;1070.37;;;999.90;;
10351;SDS011;5222;49.324;8.420;2022-09-09T01:17:36;1076.18;;;999.90;;
10351;SDS011;5222;49.324;8.420;2022-09-09T01:20:13;1082.25;;;999.90;;
10351;SDS011;5222;49.324;8.420;2022-09-09T01:22:44;1070.25;;;999.90;;
10351;SDS011;5222;49.324;8.420;2022-09-09T01:25:21;1070.95;;;999.90;;
10351;SDS011;5222;49.324;8.420;2022-09-09T01:27:56;1076.75;;;999.90;;
10351;SDS011;5222;49.324;8.420;2022-09-09T01:30:25;1065.22;;;996.60;;
10351;SDS011;5222;49.324;8.420;2022-09-09T01:32:54;1073.47;;;999.90;;
10351;SDS011;5222;49.324;8.420;2022-09-09T01:35:27;1067.35;;;998.67;;
10351;SDS011;5222;49.324;8.420;2022-09-09T01:38:01;1069.22;;;999.90;;
10351;SDS011;5222;49.324;8.420;2022-09-09T01:40:27;1078.63;;;999.90;;
10351;SDS011;5222;49.324;8.420;2022-09-09T01:42:55;1075.85;;;999.90;;
10351;SDS011;5222;49.324;8.420;2022-09-09T01:45:23;1077.65;;;999.90;;
10351;SDS011;5222;49.324;8.420;2022-09-09T01:47:50;1075.25;;;999.90;;
10351;SDS011;5222;49.324;8.420;2022-09-09T01:50:19;1076.00;;;999.90;;
10351;SDS011;5222;49.324;8.420;2022-09-09T01:52:47;1075.57;;;999.90;;
10351;SDS011;5222;49.324;8.420;2022-09-09T01:55:16;1076.82;;;999.90;;
10351;SDS011;5222;49.324;8.420;2022-09-09T01:57:47;1078.03;;;999.90;;
10351;SDS011;5222;49.324;8.420;2022-09-09T02:00:23;1073.03;;;999.90;;
10351;SDS011;5222;49.324;8.420;2022-09-09T02:02:53;1077.22;;;999.90;;
10351;SDS011;5222;49.324;8.420;2022-09-09T02:05:28;1076.88;;;999.90;;
10351;SDS011;5222;49.324;8.420;2022-09-09T02:08:00;1077.40;;;999.90;;
10351;SDS011;5222;49.324;8.420;2022-09-09T02:10:32;1078.15;;;999.90;;
10351;SDS011;5222;49.324;8.420;2022-09-09T02:13:04;1070.53;;;999.90;;
10351;SDS011;5222;49.324;8.420;2022-09-09T02:15:38;1082.63;;;999.90;;
10351;SDS011;5222;49.324;8.420;2022-09-09T02:18:10;1077.97;;;999.90;;
10351;SDS011;5222;49.324;8.420;2022-09-09T02:20:39;1078.20;;;999.90;;
10351;SDS011;5222;49.324;8.420;2022-09-09T02:23:09;1068.68;;;999.17;;
10351;SDS011;5222;49.324;8.420;2022-09-09T02:25:38;1082.95;;;999.90;;
10351;SDS011;5222;49.324;8.420;2022-09-09T02:28:08;1075.45;;;999.90;;
10351;SDS011;5222;49.324;8.420;2022-09-09T02:30:39;1079.18;;;999.90;;
10351;SDS011;5222;49.324;8.420;2022-09-09T02:33:07;1077.77;;;999.90;;
10351;SDS011;5222;49.324;8.420;2022-09-09T02:35:37;1081.47;;;999.90;;
10351;SDS011;5222;49.324;8.420;2022-09-09T02:38:06;1080.67;;;999.90;;
10351;SDS011;5222;49.324;8.420;2022-09-09T02:40:36;1083.45;;;999.90;;
10351;SDS011;5222;49.324;8.420;2022-09-09T02:43:03;1077.75;;;999.90;;
10351;SDS011;5222;49.324;8.420;2022-09-09T02:45:31;1088.43;;;999.90;;
10351;SDS011;5222;49.324;8.420;2022-09-09T02:48:11;1090.40;;;999.90;;
10351;SDS011;5222;49.324;8.420;2022-09-09T02:50:41;1091.47;;;999.90;;
10351;SDS011;5222;49.324;8.420;2022-09-09T02:53:20;1087.13;;;999.90;;
10351;SDS011;5222;49.324;8.420;2022-09-09T02:55:51;1091.15;;;999.90;;
10351;SDS011;5222;49.324;8.420;2022-09-09T02:58:24;1089.97;;;999.90;;
10351;SDS011;5222;49.324;8.420;2022-09-09T03:00:51;1094.45;;;999.90;;
10351;SDS011;5222;49.324;8.420;2022-09-09T03:03:20;1092.35;;;999.90;;
10351;SDS011;5222;49.324;8.420;2022-09-09T03:05:47;1097.70;;;999.90;;
10351;SDS011;5222;49.324;8.420;2022-09-09T03:08:14;1091.30;;;999.90;;
10351;SDS011;5222;49.324;8.420;2022-09-09T03:10:42;1095.25;;;999.90;;
10351;SDS011;5222;49.324;8.420;2022-09-09T03:13:08;1095.85;;;999.90;;
10351;SDS011;5222;49.324;8.420;2022-09-09T03:15:37;1097.80;;;999.90;;
10351;SDS011;5222;49.324;8.420;2022-09-09T03:18:04;1102.57;;;999.90;;
10351;SDS011;5222;49.324;8.420;2022-09-09T03:20:32;1097.95;;;999.90;;
10351;SDS011;5222;49.324;8.420;2022-09-09T03:22:59;1102.32;;;999.90;;
10351;SDS011;5222;49.324;8.420;2022-09-09T03:25:27;1103.63;;;999.90;;
10351;SDS011;5222;49.324;8.420;2022-09-09T03:27:55;1107.40;;;999.90;;
10351;SDS011;5222;49.324;8.420;2022-09-09T03:30:21;1103.30;;;999.90;;
10351;SDS011;5222;49.324;8.420;2022-09-09T03:32:49;1095.07;;;999.90;;
10351;SDS011;5222;49.324;8.420;2022-09-09T03:35:15;1096.22;;;999.90;;
10351;SDS011;5222;49.324;8.420;2022-09-09T03:37:44;1095.22;;;999.90;;
10351;SDS011;5222;49.324;8.420;2022-09-09T03:40:11;1091.32;;;999.90;;
10351;SDS011;5222;49.324;8.420;2022-09-09T03:42:38;1097.32;;;999.90;;
10351;SDS011;5222;49.324;8.420;2022-09-09T03:45:06;1094.80;;;999.90;;
10351;SDS011;5222;49.324;8.420;2022-09-09T03:47:35;1095.32;;;999.90;;
10351;SDS011;5222;49.324;8.420;2022-09-09T03:50:03;1099.25;;;999.90;;
10351;SDS011;5222;49.324;8.420;2022-09-09T03:52:34;1093.75;;;999.90;;
10351;SDS011;5222;49.324;8.420;2022-09-09T03:55:02;1092.00;;;999.90;;
10351;SDS011;5222;49.324;8.420;2022-09-09T03:57:31;1098.50;;;999.90;;
10351;SDS011;5222;49.324;8.420;2022-09-09T04:00:00;1084.88;;;999.90;;
10351;SDS011;5222;49.324;8.420;2022-09-09T04:02:28;1096.40;;;999.90;;
10351;SDS011;5222;49.324;8.420;2022-09-09T04:04:54;1097.53;;;999.90;;
10351;SDS011;5222;49.324;8.420;2022-09-09T04:07:21;1092.33;;;999.90;;
10351;SDS011;5222;49.324;8.420;2022-09-09T04:09:48;1080.97;;;999.90;;
10351;SDS011;5222;49.324;8.420;2022-09-09T04:12:16;1086.57;;;999.90;;
10351;SDS011;5222;49.324;8.420;2022-09-09T04:14:43;1087.28;;;999.90;;
10351;SDS011;5222;49.324;8.420;2022-09-09T04:17:09;1073.33;;;999.90;;
10351;SDS011;5222;49.324;8.420;2022-09-09T04:19:36;1084.15;;;999.90;;
10351;SDS011;5222;49.324;8.420;2022-09-09T04:22:03;1076.78;;;999.90;;
10351;SDS011;5222;49.324;8.420;2022-09-09T04:24:29;1088.40;;;999.90;;
10351;SDS011;5222;49.324;8.420;2022-09-09T04:26:56;1078.75;;;999.90;;
10351;SDS011;5222;49.324;8.420;2022-09-09T04:29:24;1079.70;;;999.90;;
10351;SDS011;5222;49.324;8.420;2022-09-09T04:31:51;1083.30;;;999.90;;
10351;SDS011;5222;49.324;8.420;2022-09-09T04:34:18;1089.65;;;999.90;;
10351;SDS011;5222;49.324;8.420;2022-09-09T04:36:44;1083.78;;;999.90;;
10351;SDS011;5222;49.324;8.420;2022-09-09T04:39:11;1074.25;;;999.90;;
10351;SDS011;5222;49.324;8.420;2022-09-09T04:41:38;1084.83;;;999.90;;
10351;SDS011;5222;49.324;8.420;2022-09-09T04:44:04;1087.38;;;999.90;;
10351;SDS011;5222;49.324;8.420;2022-09-09T04:46:32;1091.10;;;999.90;;
10351;SDS011;5222;49.324;8.420;2022-09-09T04:49:00;1084.40;;;999.90;;
10351;SDS011;5222;49.324;8.420;2022-09-09T04:51:26;1088.72;;;999.90;;
10351;SDS011;5222;49.324;8.420;2022-09-09T04:53:56;1092.18;;;999.90;;
10351;SDS011;5222;49.324;8.420;2022-09-09T04:56:23;1088.93;;;999.90;;
10351;SDS011;5222;49.324;8.420;2022-09-09T04:58:51;1088.47;;;999.90;;
10351;SDS011;5222;49.324;8.420;2022-09-09T05:01:19;1092.78;;;999.90;;
10351;SDS011;5222;49.324;8.420;2022-09-09T05:03:48;1088.72;;;999.90;;
10351;SDS011;5222;49.324;8.420;2022-09-09T05:06:15;1093.80;;;999.90;;
10351;SDS011;5222;49.324;8.420;2022-09-09T05:08:43;1083.40;;;999.90;;
10351;SDS011;5222;49.324;8.420;2022-09-09T05:11:14;1084.00;;;999.90;;
10351;SDS011;5222;49.324;8.420;2022-09-09T05:13:42;1085.60;;;999.90;;
10351;SDS011;5222;49.324;8.420;2022-09-09T05:16:09;1090.88;;;999.90;;
10351;SDS011;5222;49.324;8.420;2022-09-09T05:18:36;1083.15;;;999.90;;
10351;SDS011;5222;49.324;8.420;2022-09-09T05:21:05;1085.78;;;999.90;;
10351;SDS011;5222;49.324;8.420;2022-09-09T05:23:32;1091.63;;;999.90;;
10351;SDS011;5222;49.324;8.420;2022-09-09T05:25:59;1093.82;;;999.90;;
10351;SDS011;5222;49.324;8.420;2022-09-09T05:28:26;1086.18;;;999.90;;
10351;SDS011;5222;49.324;8.420;2022-09-09T05:30:57;1085.25;;;999.90;;
10351;SDS011;5222;49.324;8.420;2022-09-09T05:33:25;1085.03;;;999.90;;
10351;SDS011;5222;49.324;8.420;2022-09-09T05:35:58;1089.25;;;999.90;;
10351;SDS011;5222;49.324;8.420;2022-09-09T05:38:27;1086.03;;;999.90;;
10351;SDS011;5222;49.324;8.420;2022-09-09T05:40:55;1084.82;;;999.90;;
10351;SDS011;5222;49.324;8.420;2022-09-09T05:43:22;1079.00;;;999.90;;
10351;SDS011;5222;49.324;8.420;2022-09-09T05:45:58;1085.95;;;999.90;;
10351;SDS011;5222;49.324;8.420;2022-09-09T05:48:27;1080.30;;;999.90;;
10351;SDS011;5222;49.324;8.420;2022-09-09T05:50:55;1083.03;;;999.90;;
10351;SDS011;5222;49.324;8.420;2022-09-09T05:53:22;1072.32;;;999.90;;
10351;SDS011;5222;49.324;8.420;2022-09-09T05:55:50;1074.05;;;999.90;;
10351;SDS011;5222;49.324;8.420;2022-09-09T05:58:24;1080.15;;;999.90;;
10351;SDS011;5222;49.324;8.420;2022-09-09T06:00:51;1082.05;;;999.90;;
10351;SDS011;5222;49.324;8.420;2022-09-09T06:03:19;1074.35;;;999.90;;
10351;SDS011;5222;49.324;8.420;2022-09-09T06:05:56;1066.80;;;995.58;;
10351;SDS011;5222;49.324;8.420;2022-09-09T06:08:23;1062.53;;;992.55;;
10351;SDS011;5222;49.324;8.420;2022-09-09T06:10:51;1059.20;;;988.55;;
10351;SDS011;5222;49.324;8.420;2022-09-09T06:13:18;1052.88;;;983.97;;
10351;SDS011;5222;49.324;8.420;2022-09-09T06:15:49;1054.78;;;985.05;;
10351;SDS011;5222;49.324;8.420;2022-09-09T06:18:17;1047.37;;;978.97;;
10351;SDS011;5222;49.324;8.420;2022-09-09T06:20:52;1046.77;;;977.10;;
10351;SDS011;5222;49.324;8.420;2022-09-09T06:23:19;1045.32;;;976.72;;
10351;SDS011;5222;49.324;8.420;2022-09-09T06:25:46;1051.43;;;981.10;;
10351;SDS011;5222;49.324;8.420;2022-09-09T06:28:15;1050.43;;;980.55;;
10351;SDS011;5222;49.324;8.420;2022-09-09T06:30:42;1036.00;;;966.88;;
10351;SDS011;5222;49.324;8.420;2022-09-09T06:33:09;1053.15;;;981.47;;
10351;SDS011;5222;49.324;8.420;2022-09-09T06:35:36;1056.63;;;986.00;;
10351;SDS011;5222;49.324;8.420;2022-09-09T06:38:03;1049.53;;;980.15;;
10351;SDS011;5222;49.324;8.420;2022-09-09T06:40:30;1045.05;;;976.35;;
10351;SDS011;5222;49.324;8.420;2022-09-09T06:42:59;1032.13;;;963.95;;
10351;SDS011;5222;49.324;8.420;2022-09-09T06:45:28;1046.00;;;977.97;;
10351;SDS011;5222;49.324;8.420;2022-09-09T06:47:55;1051.47;;;980.90;;
10351;SDS011;5222;49.324;8.420;2022-09-09T06:50:22;1044.55;;;976.05;;
10351;SDS011;5222;49.324;8.420;2022-09-09T06:52:49;1048.32;;;979.60;;
10351;SDS011;5222;49.324;8.420;2022-09-09T06:55:16;1050.55;;;981.65;;
10351;SDS011;5222;49.324;8.420;2022-09-09T06:57:43;1048.95;;;978.80;;
10351;SDS011;5222;49.324;8.420;2022-09-09T07:00:10;1053.88;;;984.75;;
10351;SDS011;5222;49.324;8.420;2022-09-09T07:02:40;1053.33;;;983.50;;
10351;SDS011;5222;49.324;8.420;2022-09-09T07:05:07;1055.68;;;986.35;;
10351;SDS011;5222;49.324;8.420;2022-09-09T07:07:34;1061.45;;;992.40;;
10351;SDS011;5222;49.324;8.420;2022-09-09T07:10:01;1055.07;;;986.53;;
10351;SDS011;5222;49.324;8.420;2022-09-09T07:12:29;1035.00;;;967.70;;
10351;SDS011;5222;49.324;8.420;2022-09-09T07:14:56;943.47;;;879.22;;
10351;SDS011;5222;49.324;8.420;2022-09-09T07:17:23;1011.47;;;945.50;;
10351;SDS011;5222;49.324;8.420;2022-09-09T07:19:51;981.05;;;915.40;;
10351;SDS011;5222;49.324;8.420;2022-09-09T07:22:18;1022.25;;;955.50;;
10351;SDS011;5222;49.324;8.420;2022-09-09T07:24:45;1033.75;;;966.10;;
10351;SDS011;5222;49.324;8.420;2022-09-09T07:27:11;1039.75;;;973.08;;
10351;SDS011;5222;49.324;8.420;2022-09-09T07:29:38;1039.60;;;972.28;;
10351;SDS011;5222;49.324;8.420;2022-09-09T07:32:05;1029.90;;;963.28;;
10351;SDS011;5222;49.324;8.420;2022-09-09T07:34:31;1039.10;;;970.95;;
10351;SDS011;5222;49.324;8.420;2022-09-09T07:37:00;1037.50;;;969.20;;
10351;SDS011;5222;49.324;8.420;2022-09-09T07:39:26;1033.60;;;966.38;;
10351;SDS011;5222;49.324;8.420;2022-09-09T07:41:53;1037.93;;;969.15;;
10351;SDS011;5222;49.324;8.420;2022-09-09T07:44:21;1036.55;;;967.03;;
10351;SDS011;5222;49.324;8.420;2022-09-09T07:46:49;1038.67;;;969.70;;
10351;SDS011;5222;49.324;8.420;2022-09-09T07:49:16;1032.32;;;964.65;;
10351;SDS011;5222;49.324;8.420;2022-09-09T07:51:44;1029.65;;;962.08;;
10351;SDS011;5222;49.324;8.420;2022-09-09T07:54:15;1026.28;;;958.53;;
10351;SDS011;5222;49.324;8.420;2022-09-09T07:56:45;1032.70;;;965.10;;
10351;SDS011;5222;49.324;8.420;2022-09-09T07:59:12;1017.72;;;951.17;;
10351;SDS011;5222;49.324;8.420;2022-09-09T08:01:40;1036.53;;;969.20;;
10351;SDS011;5222;49.324;8.420;2022-09-09T08:04:11;1036.63;;;967.50;;
10351;SDS011;5222;49.324;8.420;2022-09-09T08:06:40;1027.25;;;959.78;;
10351;SDS011;5222;49.324;8.420;2022-09-09T08:09:09;1041.78;;;972.90;;
10351;SDS011;5222;49.324;8.420;2022-09-09T08:11:38;1033.90;;;966.40;;
10351;SDS011;5222;49.324;8.420;2022-09-09T08:14:06;1032.03;;;963.08;;
10351;SDS011;5222;49.324;8.420;2022-09-09T08:16:34;1037.10;;;969.60;;
10351;SDS011;5222;49.324;8.420;2022-09-09T08:19:03;1036.72;;;968.80;;
10351;SDS011;5222;49.324;8.420;2022-09-09T08:21:32;1036.72;;;969.20;;
10351;SDS011;5222;49.324;8.420;2022-09-09T08:24:01;1035.78;;;967.17;;
10351;SDS011;5222;49.324;8.420;2022-09-09T08:26:30;1031.75;;;964.75;;
10351;SDS011;5222;49.324;8.420;2022-09-09T08:29:01;1036.38;;;967.97;;
10351;SDS011;5222;49.324;8.420;2022-09-09T08:31:30;1033.03;;;965.53;;
10351;SDS011;5222;49.324;8.420;2022-09-09T08:33:59;1024.95;;;956.47;;
10351;SDS011;5222;49.324;8.420;2022-09-09T08:36:27;1027.60;;;960.30;;
10351;SDS011;5222;49.324;8.420;2022-09-09T08:38:55;1035.32;;;967.53;;
10351;SDS011;5222;49.324;8.420;2022-09-09T08:41:30;1022.22;;;954.78;;
10351;SDS011;5222;49.324;8.420;2022-09-09T08:44:21;1036.47;;;967.28;;
10351;SDS011;5222;49.324;8.420;2022-09-09T08:47:02;1026.95;;;958.65;;
10351;SDS011;5222;49.324;8.420;2022-09-09T08:52:32;1029.03;;;961.27;;
10351;SDS011;5222;49.324;8.420;2022-09-09T08:55:10;1035.13;;;967.17;;
10351;SDS011;5222;49.324;8.420;2022-09-09T08:57:43;1042.47;;;971.63;;
10351;SDS011;5222;49.324;8.420;2022-09-09T09:00:13;1024.63;;;957.37;;
10351;SDS011;5222;49.324;8.420;2022-09-09T09:02:42;1018.97;;;951.97;;
10351;SDS011;5222;49.324;8.420;2022-09-09T09:05:17;1035.38;;;967.38;;
10351;SDS011;5222;49.324;8.420;2022-09-09T09:07:54;1040.43;;;971.80;;
10351;SDS011;5222;49.324;8.420;2022-09-09T09:10:33;1026.27;;;959.87;;
10351;SDS011;5222;49.324;8.420;2022-09-09T09:13:11;1023.47;;;956.28;;
10351;SDS011;5222;49.324;8.420;2022-09-09T09:15:46;1031.88;;;964.95;;
10351;SDS011;5222;49.324;8.420;2022-09-09T09:18:16;998.15;;;931.50;;
10351;SDS011;5222;49.324;8.420;2022-09-09T09:20:47;969.13;;;903.83;;
10351;SDS011;5222;49.324;8.420;2022-09-09T09:23:21;989.05;;;923.53;;
10351;SDS011;5222;49.324;8.420;2022-09-09T09:25:52;945.30;;;880.57;;
10351;SDS011;5222;49.324;8.420;2022-09-09T09:28:24;917.55;;;854.78;;
10351;SDS011;5222;49.324;8.420;2022-09-09T09:30:55;931.13;;;867.78;;
10351;SDS011;5222;49.324;8.420;2022-09-09T09:33:27;969.13;;;904.33;;
10351;SDS011;5222;49.324;8.420;2022-09-09T09:36:00;971.33;;;905.90;;
10351;SDS011;5222;49.324;8.420;2022-09-09T09:38:28;962.60;;;898.35;;
10351;SDS011;5222;49.324;8.420;2022-09-09T09:40:57;911.60;;;847.95;;
10351;SDS011;5222;49.324;8.420;2022-09-09T09:43:26;848.25;;;788.05;;
10351;SDS011;5222;49.324;8.420;2022-09-09T09:45:58;857.88;;;796.80;;
10351;SDS011;5222;49.324;8.420;2022-09-09T09:48:25;995.50;;;930.15;;
10351;SDS011;5222;49.324;8.420;2022-09-09T09:50:54;1027.15;;;959.85;;
10351;SDS011;5222;49.324;8.420;2022-09-09T09:53:24;1042.68;;;975.00;;
10351;SDS011;5222;49.324;8.420;2022-09-09T09:55:54;1037.93;;;968.92;;
10351;SDS011;5222;49.324;8.420;2022-09-09T09:58:23;1035.97;;;968.17;;
10351;SDS011;5222;49.324;8.420;2022-09-09T10:00:51;1029.75;;;962.15;;
10351;SDS011;5222;49.324;8.420;2022-09-09T10:03:24;1029.55;;;962.38;;
10351;SDS011;5222;49.324;8.420;2022-09-09T10:05:53;1031.17;;;963.63;;
10351;SDS011;5222;49.324;8.420;2022-09-09T10:08:21;1020.75;;;954.05;;
10351;SDS011;5222;49.324;8.420;2022-09-09T10:10:51;1027.60;;;959.63;;
10351;SDS011;5222;49.324;8.420;2022-09-09T10:13:32;1017.35;;;951.63;;
10351;SDS011;5222;49.324;8.420;2022-09-09T10:16:09;1027.97;;;960.63;;
10351;SDS011;5222;49.324;8.420;2022-09-09T10:18:50;1018.78;;;952.15;;
10351;SDS011;5222;49.324;8.420;2022-09-09T10:21:27;1038.72;;;970.83;;
10351;SDS011;5222;49.324;8.420;2022-09-09T10:24:11;1004.28;;;935.50;;
10351;SDS011;5222;49.324;8.420;2022-09-09T10:26:53;979.67;;;913.67;;
10351;SDS011;5222;49.324;8.420;2022-09-09T10:29:38;970.65;;;905.20;;
10351;SDS011;5222;49.324;8.420;2022-09-09T10:32:20;894.10;;;831.03;;
10351;SDS011;5222;49.324;8.420;2022-09-09T10:35:04;823.60;;;762.55;;
10351;SDS011;5222;49.324;8.420;2022-09-09T10:37:40;805.90;;;745.80;;
10351;SDS011;5222;49.324;8.420;2022-09-09T10:40:18;803.05;;;742.17;;
10351;SDS011;5222;49.324;8.420;2022-09-09T10:42:51;793.38;;;734.13;;
10351;SDS011;5222;49.324;8.420;2022-09-09T10:45:24;797.07;;;737.83;;
10351;SDS011;5222;49.324;8.420;2022-09-09T10:48:02;794.20;;;734.17;;
10351;SDS011;5222;49.324;8.420;2022-09-09T10:50:49;796.60;;;736.63;;
10351;SDS011;5222;49.324;8.420;2022-09-09T10:53:22;795.97;;;736.60;;
10351;SDS011;5222;49.324;8.420;2022-09-09T10:55:59;792.53;;;732.83;;
10351;SDS011;5222;49.324;8.420;2022-09-09T10:58:31;797.75;;;738.50;;
10351;SDS011;5222;49.324;8.420;2022-09-09T11:01:06;797.83;;;738.33;;
10351;SDS011;5222;49.324;8.420;2022-09-09T11:03:41;804.58;;;743.90;;
10351;SDS011;5222;49.324;8.420;2022-09-09T11:06:12;802.42;;;741.65;;
10351;SDS011;5222;49.324;8.420;2022-09-09T11:08:42;783.60;;;724.53;;
10351;SDS011;5222;49.324;8.420;2022-09-09T11:11:13;798.00;;;736.80;;
10351;SDS011;5222;49.324;8.420;2022-09-09T11:13:44;793.43;;;733.80;;
10351;SDS011;5222;49.324;8.420;2022-09-09T11:16:21;778.65;;;720.47;;
10351;SDS011;5222;49.324;8.420;2022-09-09T11:18:54;783.42;;;723.60;;
10351;SDS011;5222;49.324;8.420;2022-09-09T11:21:28;794.85;;;733.90;;
10351;SDS011;5222;49.324;8.420;2022-09-09T11:23:59;799.65;;;738.65;;
10351;SDS011;5222;49.324;8.420;2022-09-09T11:26:30;795.50;;;734.35;;
10351;SDS011;5222;49.324;8.420;2022-09-09T11:29:09;791.60;;;732.27;;
10351;SDS011;5222;49.324;8.420;2022-09-09T11:32:02;789.85;;;729.85;;
10351;SDS011;5222;49.324;8.420;2022-09-09T11:34:46;784.40;;;725.50;;
10351;SDS011;5222;49.324;8.420;2022-09-09T11:37:37;788.40;;;729.90;;
10351;SDS011;5222;49.324;8.420;2022-09-09T11:40:22;776.10;;;718.00;;
10351;SDS011;5222;49.324;8.420;2022-09-09T11:43:00;790.27;;;730.50;;
10351;SDS011;5222;49.324;8.420;2022-09-09T11:45:29;786.78;;;727.63;;
10351;SDS011;5222;49.324;8.420;2022-09-09T11:47:58;800.27;;;738.90;;
10351;SDS011;5222;49.324;8.420;2022-09-09T11:50:30;777.40;;;718.47;;
10351;SDS011;5222;49.324;8.420;2022-09-09T11:53:16;798.20;;;738.80;;
10351;SDS011;5222;49.324;8.420;2022-09-09T11:55:59;808.42;;;748.80;;
10351;SDS011;5222;49.324;8.420;2022-09-09T11:58:33;793.25;;;733.72;;
10351;SDS011;5222;49.324;8.420;2022-09-09T12:04:01;784.63;;;724.43;;
10351;SDS011;5222;49.324;8.420;2022-09-09T12:06:44;774.00;;;715.53;;
10351;SDS011;5222;49.324;8.420;2022-09-09T12:09:19;782.88;;;723.85;;
10351;SDS011;5222;49.324;8.420;2022-09-09T12:11:51;779.93;;;720.90;;
10351;SDS011;5222;49.324;8.420;2022-09-09T12:14:22;773.37;;;713.93;;
10351;SDS011;5222;49.324;8.420;2022-09-09T12:17:09;786.65;;;727.05;;
10351;SDS011;5222;49.324;8.420;2022-09-09T12:19:36;778.72;;;719.55;;
10351;SDS011;5222;49.324;8.420;2022-09-09T12:22:04;765.70;;;707.45;;
10351;SDS011;5222;49.324;8.420;2022-09-09T12:24:40;787.00;;;727.83;;
10351;SDS011;5222;49.324;8.420;2022-09-09T12:27:14;775.58;;;716.22;;
10351;SDS011;5222;49.324;8.420;2022-09-09T12:29:47;769.93;;;711.60;;
10351;SDS011;5222;49.324;8.420;2022-09-09T12:32:22;786.53;;;727.78;;
10351;SDS011;5222;49.324;8.420;2022-09-09T12:34:52;778.35;;;720.55;;
10351;SDS011;5222;49.324;8.420;2022-09-09T12:37:31;783.25;;;725.28;;
10351;SDS011;5222;49.324;8.420;2022-09-09T12:40:02;796.17;;;735.70;;
10351;SDS011;5222;49.324;8.420;2022-09-09T12:42:31;784.50;;;725.73;;
10351;SDS011;5222;49.324;8.420;2022-09-09T12:44:59;798.65;;;738.00;;
10351;SDS011;5222;49.324;8.420;2022-09-09T12:47:34;785.15;;;726.60;;
10351;SDS011;5222;49.324;8.420;2022-09-09T12:50:10;803.65;;;743.05;;
10351;SDS011;5222;49.324;8.420;2022-09-09T12:52:42;774.83;;;717.08;;
10351;SDS011;5222;49.324;8.420;2022-09-09T12:55:16;790.83;;;731.42;;
10351;SDS011;5222;49.324;8.420;2022-09-09T12:57:46;783.13;;;723.47;;
10351;SDS011;5222;49.324;8.420;2022-09-09T13:00:16;769.33;;;710.83;;
10351;SDS011;5222;49.324;8.420;2022-09-09T13:02:46;778.90;;;719.53;;
10351;SDS011;5222;49.324;8.420;2022-09-09T13:05:17;789.80;;;730.72;;
10351;SDS011;5222;49.324;8.420;2022-09-09T13:07:47;804.60;;;743.95;;
10351;SDS011;5222;49.324;8.420;2022-09-09T13:10:18;840.42;;;779.85;;
10351;SDS011;5222;49.324;8.420;2022-09-09T13:12:50;867.22;;;804.53;;
10351;SDS011;5222;49.324;8.420;2022-09-09T13:15:19;1020.30;;;951.90;;
10351;SDS011;5222;49.324;8.420;2022-09-09T13:17:52;1045.90;;;977.05;;
10351;SDS011;5222;49.324;8.420;2022-09-09T13:20:20;1039.07;;;969.53;;
10351;SDS011;5222;49.324;8.420;2022-09-09T13:22:48;1036.85;;;967.75;;
10351;SDS011;5222;49.324;8.420;2022-09-09T13:25:19;1031.53;;;962.17;;
10351;SDS011;5222;49.324;8.420;2022-09-09T13:27:57;1036.78;;;967.75;;
10351;SDS011;5222;49.324;8.420;2022-09-09T13:30:26;1023.75;;;955.25;;
10351;SDS011;5222;49.324;8.420;2022-09-09T13:33:06;1030.07;;;961.65;;
10351;SDS011;5222;49.324;8.420;2022-09-09T13:35:50;1028.80;;;960.30;;
10351;SDS011;5222;49.324;8.420;2022-09-09T13:38:20;1029.03;;;959.40;;
10351;SDS011;5222;49.324;8.420;2022-09-09T13:40:58;1033.15;;;963.33;;
10351;SDS011;5222;49.324;8.420;2022-09-09T13:43:29;1026.30;;;958.65;;
10351;SDS011;5222;49.324;8.420;2022-09-09T13:46:00;1024.72;;;956.88;;
10351;SDS011;5222;49.324;8.420;2022-09-09T13:48:28;1014.97;;;946.72;;
10351;SDS011;5222;49.324;8.420;2022-09-09T13:50:57;1024.07;;;956.35;;
10351;SDS011;5222;49.324;8.420;2022-09-09T13:53:25;1016.47;;;949.47;;
10351;SDS011;5222;49.324;8.420;2022-09-09T13:55:53;1038.63;;;970.78;;
10351;SDS011;5222;49.324;8.420;2022-09-09T13:58:23;1037.45;;;970.22;;
10351;SDS011;5222;49.324;8.420;2022-09-09T14:00:50;1012.60;;;945.13;;
10351;SDS011;5222;49.324;8.420;2022-09-09T14:03:17;990.13;;;923.42;;
10351;SDS011;5222;49.324;8.420;2022-09-09T14:05:44;996.35;;;930.22;;
10351;SDS011;5222;49.324;8.420;2022-09-09T14:08:14;982.15;;;916.58;;
10351;SDS011;5222;49.324;8.420;2022-09-09T14:10:47;906.80;;;843.50;;
10351;SDS011;5222;49.324;8.420;2022-09-09T14:13:15;830.78;;;770.38;;
10351;SDS011;5222;49.324;8.420;2022-09-09T14:15:43;820.50;;;759.65;;
10351;SDS011;5222;49.324;8.420;2022-09-09T14:18:13;808.45;;;747.95;;
10351;SDS011;5222;49.324;8.420;2022-09-09T14:20:39;808.67;;;747.22;;
10351;SDS011;5222;49.324;8.420;2022-09-09T14:23:09;787.85;;;728.08;;
10351;SDS011;5222;49.324;8.420;2022-09-09T14:25:39;786.65;;;726.72;;